createdAt,value
2019-01-06T00:02:32.932Z,17.07
2019-01-06T00:05:19.852Z,17.53
2019-01-06T00:08:08.194Z,16.93
2019-01-06T00:10:55.176Z,17.30
2019-01-06T00:13:46.254Z,13.83
2019-01-06T00:16:40.711Z,15.73
2019-01-06T00:19:47.023Z,15.20
2019-01-06T00:22:33.859Z,15.87
2019-01-06T00:25:28.183Z,16.90
2019-01-06T00:28:15.090Z,16.77
2019-01-06T00:31:15.262Z,14.40
2019-01-06T00:34:02.679Z,16.67
2019-01-06T00:37:03.196Z,22.77
2019-01-06T00:39:50.112Z,19.97
2019-01-06T00:42:38.459Z,21.17
2019-01-06T00:45:32.810Z,21.40
2019-01-06T00:48:36.630Z,16.17
2019-01-06T00:51:23.364Z,21.40
2019-01-06T00:54:14.581Z,20.43
2019-01-06T00:57:11.312Z,21.40
2019-01-06T01:00:08.688Z,24.63
2019-01-06T01:02:55.480Z,18.47
2019-01-06T01:05:43.810Z,22.17
2019-01-06T01:08:44.207Z,21.67
2019-01-06T01:11:33.229Z,25.07
2019-01-06T01:14:20.188Z,20.83
2019-01-06T01:17:05.980Z,22.47
2019-01-06T01:19:52.789Z,28.33
2019-01-06T01:22:44.167Z,29.07
2019-01-06T01:25:47.433Z,27.93
2019-01-06T01:28:43.680Z,19.83
2019-01-06T01:31:49.873Z,26.47
2019-01-06T01:34:47.055Z,21.73
2019-01-06T01:37:38.390Z,26.63
2019-01-06T01:40:33.284Z,24.70
2019-01-06T01:43:39.828Z,25.23
2019-01-06T01:46:34.280Z,21.87
2019-01-06T01:49:25.587Z,22.20
2019-01-06T01:52:27.275Z,21.57
2019-01-06T01:55:14.377Z,21.03
2019-01-06T01:58:02.668Z,24.00
2019-01-06T02:00:47.445Z,24.20
2019-01-06T02:03:34.128Z,21.70
2019-01-06T02:06:25.208Z,21.73
2019-01-06T02:09:16.518Z,21.73
2019-01-06T02:12:13.921Z,25.03
2019-01-06T02:15:11.111Z,24.73
2019-01-06T02:17:59.440Z,22.03
2019-01-06T02:21:02.706Z,25.77
2019-01-06T02:23:50.418Z,19.27
2019-01-06T02:26:38.693Z,23.20
2019-01-06T02:29:25.616Z,22.23
2019-01-06T02:32:08.282Z,22.67
2019-01-06T02:35:11.417Z,20.77
2019-01-06T02:38:02.395Z,20.67
2019-01-06T02:40:49.094Z,20.20
2019-01-06T02:43:35.729Z,23.37
2019-01-06T02:46:24.052Z,19.90
2019-01-06T02:49:18.185Z,21.87
2019-01-06T02:52:12.314Z,21.60
2019-01-06T02:54:59.165Z,27.07
2019-01-06T02:57:46.253Z,20.83
2019-01-06T03:00:46.618Z,23.77
2019-01-06T03:03:33.555Z,23.47
2019-01-06T03:06:20.298Z,23.60
2019-01-06T03:09:17.690Z,27.33
2019-01-06T03:12:17.868Z,23.73
2019-01-06T03:15:03.244Z,20.70
2019-01-06T03:17:49.995Z,26.03
2019-01-06T03:20:42.112Z,24.40
2019-01-06T03:23:36.592Z,23.60
2019-01-06T03:26:36.950Z,28.73
2019-01-06T03:29:33.627Z,23.63
2019-01-06T03:32:27.720Z,21.03
2019-01-06T03:35:18.773Z,25.60
2019-01-06T03:38:05.400Z,23.37
2019-01-06T03:40:52.064Z,24.93
2019-01-06T03:43:39.032Z,26.03
2019-01-06T03:46:25.023Z,24.00
2019-01-06T03:49:11.841Z,25.63
2019-01-06T03:52:09.121Z,24.50
2019-01-06T03:55:15.303Z,26.47
2019-01-06T03:58:06.304Z,22.80
2019-01-06T04:00:46.756Z,23.37
2019-01-06T04:03:33.647Z,25.33
2019-01-06T04:06:20.409Z,24.63
2019-01-06T04:09:17.575Z,22.13
2019-01-06T04:12:05.899Z,21.20
2019-01-06T04:15:06.273Z,18.20
2019-01-06T04:18:09.738Z,21.97
2019-01-06T04:21:04.097Z,23.93
2019-01-06T04:23:59.409Z,21.53
2019-01-06T04:26:59.929Z,19.43
2019-01-06T04:29:48.205Z,26.33
2019-01-06T04:32:54.510Z,27.27
2019-01-06T04:35:41.278Z,22.67
2019-01-06T04:38:41.168Z,23.10
2019-01-06T04:41:29.458Z,23.70
2019-01-06T04:44:29.991Z,22.93
2019-01-06T04:47:16.966Z,23.97
2019-01-06T04:50:13.523Z,23.90
2019-01-06T04:53:13.936Z,19.80
2019-01-06T04:56:02.220Z,20.40
2019-01-06T04:59:08.414Z,21.10
2019-01-06T05:01:55.101Z,21.10
2019-01-06T05:04:41.961Z,20.23
2019-01-06T05:07:28.904Z,21.53
2019-01-06T05:10:29.430Z,24.80
2019-01-06T05:13:12.351Z,26.17
2019-01-06T05:16:00.694Z,23.70
2019-01-06T05:18:54.788Z,25.57
2019-01-06T05:21:37.442Z,24.93
2019-01-06T05:24:28.578Z,20.77
2019-01-06T05:27:22.991Z,23.67
2019-01-06T05:30:10.024Z,19.70
2019-01-06T05:33:13.239Z,20.83
2019-01-06T05:36:13.637Z,20.33
2019-01-06T05:39:14.116Z,21.40
2019-01-06T05:42:20.635Z,21.37
2019-01-06T05:45:17.851Z,26.83
2019-01-06T05:48:04.614Z,24.07
2019-01-06T05:50:50.935Z,25.30
2019-01-06T05:53:45.244Z,22.00
2019-01-06T05:56:27.488Z,25.47
2019-01-06T05:59:14.439Z,21.63
2019-01-06T06:02:14.487Z,25.50
2019-01-06T06:05:05.847Z,26.47
2019-01-06T06:08:08.108Z,27.47
2019-01-06T06:11:02.451Z,23.47
2019-01-06T06:13:56.664Z,21.83
2019-01-06T06:16:44.924Z,32.13
2019-01-06T06:19:31.619Z,23.00
2019-01-06T06:22:18.515Z,23.67
2019-01-06T06:25:05.286Z,24.23
2019-01-06T06:27:50.462Z,25.87
2019-01-06T06:30:56.675Z,23.20
2019-01-06T06:33:53.948Z,25.30
2019-01-06T06:36:32.217Z,23.80
2019-01-06T06:39:23.473Z,23.77
2019-01-06T06:42:14.070Z,24.30
2019-01-06T06:45:02.322Z,22.33
2019-01-06T06:47:53.385Z,27.93
2019-01-06T06:50:40.249Z,25.13
2019-01-06T06:53:33.787Z,24.93
2019-01-06T06:56:22.101Z,23.90
2019-01-06T06:59:09.139Z,28.83
2019-01-06T07:02:47.365Z,27.70
2019-01-06T07:05:34.250Z,29.97
2019-01-06T07:08:28.313Z,28.37
2019-01-06T07:11:23.743Z,26.67
2019-01-06T07:14:30.225Z,23.63
2019-01-06T07:17:49.744Z,30.97
2019-01-06T07:20:37.237Z,31.33
2019-01-06T07:23:28.647Z,31.70
2019-01-06T07:26:15.460Z,26.57
2019-01-06T07:29:21.658Z,28.20
2019-01-06T07:32:09.935Z,28.37
2019-01-06T07:34:58.234Z,28.40
2019-01-06T07:38:01.648Z,24.50
2019-01-06T07:40:48.421Z,29.20
2019-01-06T07:43:35.108Z,28.73
2019-01-06T07:46:26.487Z,26.23
2019-01-06T07:49:13.183Z,29.17
2019-01-06T07:52:00.197Z,32.63
2019-01-06T07:55:00.655Z,29.13
2019-01-06T07:57:43.592Z,25.47
2019-01-06T08:00:32.667Z,27.93
2019-01-06T08:03:23.700Z,25.50
2019-01-06T08:06:10.808Z,25.47
2019-01-06T08:08:57.592Z,25.80
2019-01-06T08:11:49.615Z,24.33
2019-01-06T08:14:36.548Z,26.47
2019-01-06T08:17:23.432Z,29.30
2019-01-06T08:20:29.673Z,28.57
2019-01-06T08:23:33.067Z,29.77
2019-01-06T08:26:28.520Z,28.23
2019-01-06T08:29:15.544Z,29.60
2019-01-06T08:32:02.258Z,27.87
2019-01-06T08:34:50.542Z,27.27
2019-01-06T08:37:47.957Z,30.40
2019-01-06T08:40:34.579Z,30.00
2019-01-06T08:43:34.957Z,29.53
2019-01-06T08:46:28.976Z,31.90
2019-01-06T08:49:15.853Z,29.57
2019-01-06T08:52:08.933Z,30.93
2019-01-06T08:54:55.678Z,34.50
2019-01-06T08:57:45.059Z,36.80
2019-01-06T09:00:33.432Z,26.33
2019-01-06T09:03:23.586Z,30.67
2019-01-06T09:06:22.537Z,28.53
2019-01-06T09:09:16.626Z,30.47
2019-01-06T09:12:17.016Z,28.63
2019-01-06T09:15:20.517Z,36.73
2019-01-06T09:18:07.945Z,29.97
2019-01-06T09:20:55.182Z,28.70
2019-01-06T09:23:55.815Z,28.37
2019-01-06T09:26:42.625Z,31.17
2019-01-06T09:29:33.825Z,32.60
2019-01-06T09:32:28.226Z,24.77
2019-01-06T09:35:14.432Z,31.33
2019-01-06T09:38:09.827Z,28.40
2019-01-06T09:40:58.173Z,32.87
2019-01-06T09:43:58.621Z,28.37
2019-01-06T09:46:47.484Z,28.33
2019-01-06T09:49:34.466Z,28.77
2019-01-06T09:52:21.279Z,28.03
2019-01-06T09:55:08.005Z,25.73
2019-01-06T09:57:56.260Z,25.40
2019-01-06T10:00:42.965Z,23.97
2019-01-06T10:03:49.143Z,24.30
2019-01-06T10:06:43.176Z,30.20
2019-01-06T10:09:30.012Z,24.40
2019-01-06T10:12:30.239Z,25.97
2019-01-06T10:15:28.018Z,30.40
2019-01-06T10:18:23.072Z,24.33
2019-01-06T10:21:10.116Z,24.47
2019-01-06T10:23:57.959Z,25.37
2019-01-06T10:26:44.944Z,25.17
2019-01-06T10:29:45.807Z,25.17
2019-01-06T10:32:37.271Z,24.03
2019-01-06T10:35:24.259Z,22.10
2019-01-06T10:38:24.803Z,23.90
2019-01-06T10:41:12.100Z,25.53
2019-01-06T10:43:53.221Z,26.30
2019-01-06T10:46:40.370Z,22.40
2019-01-06T10:49:27.402Z,26.37
2019-01-06T10:52:15.733Z,27.37
2019-01-06T10:55:10.000Z,15.43
2019-01-06T10:57:56.749Z,20.33
2019-01-06T11:00:53.946Z,20.73
2019-01-06T11:03:40.998Z,16.47
2019-01-06T11:06:35.349Z,20.77
2019-01-06T11:09:23.039Z,15.43
2019-01-06T11:12:26.296Z,20.03
2019-01-06T11:15:17.238Z,18.87
2019-01-06T11:18:03.988Z,21.97
2019-01-06T11:20:52.300Z,20.77
2019-01-06T11:23:48.481Z,19.63
2019-01-06T11:26:42.960Z,25.93
2019-01-06T11:29:28.248Z,23.03
2019-01-06T11:32:19.438Z,21.97
2019-01-06T11:35:06.217Z,23.93
2019-01-06T11:37:53.147Z,22.87
2019-01-06T11:40:56.637Z,23.70
2019-01-06T11:43:59.952Z,23.73
2019-01-06T11:47:00.498Z,24.10
2019-01-06T11:49:47.453Z,24.87
2019-01-06T11:52:34.204Z,28.40
2019-01-06T11:55:28.471Z,25.37
2019-01-06T11:58:16.883Z,23.27
2019-01-06T12:01:14.382Z,24.77
2019-01-06T12:04:05.038Z,22.90
2019-01-06T12:06:51.715Z,24.40
2019-01-06T12:09:40.172Z,28.20
2019-01-06T12:12:28.503Z,25.97
2019-01-06T12:15:13.102Z,27.80
2019-01-06T12:18:00.164Z,24.87
2019-01-06T12:20:46.896Z,48.27
2019-01-06T12:23:33.665Z,33.37
2019-01-06T12:26:22.020Z,21.03
2019-01-06T12:29:10.345Z,23.37
2019-01-06T12:31:59.363Z,17.80
2019-01-06T12:34:56.622Z,16.13
2019-01-06T12:37:47.953Z,17.17
2019-01-06T12:40:39.133Z,17.67
2019-01-06T12:43:42.396Z,16.13
2019-01-06T12:46:36.457Z,15.90
2019-01-06T12:49:24.013Z,16.87
2019-01-06T12:52:10.943Z,12.40
2019-01-06T12:54:57.813Z,14.97
2019-01-06T12:57:55.454Z,15.37
2019-01-06T13:00:42.390Z,21.40
2019-01-06T13:03:44.197Z,16.53
2019-01-06T13:06:31.166Z,18.70
2019-01-06T13:09:19.500Z,15.87
2019-01-06T13:12:06.308Z,17.77
2019-01-06T13:14:46.964Z,15.63
2019-01-06T13:17:44.401Z,13.77
2019-01-06T13:20:38.747Z,15.10
2019-01-06T13:23:41.994Z,10.93
2019-01-06T13:26:33.371Z,12.23
2019-01-06T13:29:20.202Z,16.13
2019-01-06T13:32:24.246Z,12.83
2019-01-06T13:35:18.544Z,18.57
2019-01-06T13:38:05.398Z,12.10
2019-01-06T13:41:03.088Z,15.13
2019-01-06T13:43:49.048Z,13.17
2019-01-06T13:46:35.052Z,14.80
2019-01-06T13:49:21.961Z,14.27
2019-01-06T13:52:09.589Z,13.73
2019-01-06T13:55:13.004Z,11.00
2019-01-06T13:57:59.411Z,9.70
2019-01-06T14:00:59.886Z,7.67
2019-01-06T14:03:53.111Z,11.83
2019-01-06T14:06:41.417Z,9.73
2019-01-06T14:09:38.696Z,11.30
2019-01-06T14:12:25.738Z,8.33
2019-01-06T14:15:14.071Z,9.70
2019-01-06T14:18:15.231Z,9.10
2019-01-06T14:21:22.080Z,8.43
2019-01-06T14:24:25.604Z,8.93
2019-01-06T14:27:32.083Z,10.03
2019-01-06T14:30:21.049Z,8.53
2019-01-06T14:33:09.441Z,6.63
2019-01-06T14:35:52.844Z,7.23
2019-01-06T14:38:41.121Z,10.50
2019-01-06T14:41:27.847Z,8.67
2019-01-06T14:44:22.012Z,5.73
2019-01-06T14:47:09.043Z,7.63
2019-01-06T14:50:06.710Z,7.73
2019-01-06T14:52:58.000Z,12.60
2019-01-06T14:55:44.953Z,9.57
2019-01-06T14:58:25.342Z,7.60
2019-01-06T15:01:29.591Z,8.43
2019-01-06T15:04:16.361Z,12.33
2019-01-06T15:07:03.071Z,11.77
2019-01-06T15:10:09.362Z,10.77
2019-01-06T15:13:10.486Z,9.37
2019-01-06T15:15:57.446Z,9.20
2019-01-06T15:18:45.751Z,14.43
2019-01-06T15:21:40.233Z,6.33
2019-01-06T15:24:37.394Z,6.37
2019-01-06T15:27:28.611Z,9.30
2019-01-06T15:30:15.471Z,9.57
2019-01-06T15:33:06.776Z,9.47
2019-01-06T15:35:53.573Z,7.63
2019-01-06T15:38:33.829Z,11.03
2019-01-06T15:41:20.791Z,9.73
2019-01-06T15:44:15.025Z,10.97
2019-01-06T15:47:01.991Z,10.73
2019-01-06T15:50:03.077Z,16.00
2019-01-06T15:52:50.027Z,22.70
2019-01-06T15:55:47.415Z,26.50
2019-01-06T15:58:33.144Z,29.47
2019-01-06T16:01:19.915Z,29.60
2019-01-06T16:04:08.194Z,27.77
2019-01-06T16:06:59.185Z,30.30
2019-01-06T16:09:50.259Z,21.67
2019-01-06T16:12:53.392Z,21.87
2019-01-06T16:15:50.298Z,20.87
2019-01-06T16:18:44.627Z,17.97
2019-01-06T16:21:39.100Z,23.50
2019-01-06T16:24:25.797Z,18.07
2019-01-06T16:27:23.074Z,22.80
2019-01-06T16:30:09.996Z,26.40
2019-01-06T16:32:56.647Z,24.03
2019-01-06T16:35:43.711Z,22.83
2019-01-06T16:38:30.568Z,22.40
2019-01-06T16:41:27.878Z,22.77
2019-01-06T16:44:10.786Z,23.73
2019-01-06T16:46:57.560Z,25.03
2019-01-06T16:49:51.685Z,23.80
2019-01-06T16:52:46.140Z,21.73
2019-01-06T16:55:37.494Z,20.43
2019-01-06T16:58:23.949Z,22.87
2019-01-06T17:01:10.381Z,24.60
2019-01-06T17:04:04.689Z,22.27
2019-01-06T17:06:58.734Z,23.93
2019-01-06T17:09:45.621Z,22.17
2019-01-06T17:12:42.779Z,25.13
2019-01-06T17:15:33.813Z,23.87
2019-01-06T17:18:22.115Z,20.90
2019-01-06T17:21:10.412Z,23.70
2019-01-06T17:24:13.606Z,28.97
2019-01-06T17:27:08.049Z,23.33
2019-01-06T17:29:54.799Z,24.63
2019-01-06T17:32:43.102Z,21.73
2019-01-06T17:35:30.151Z,19.97
2019-01-06T17:38:13.968Z,24.47
2019-01-06T17:41:08.212Z,22.67
2019-01-06T17:44:02.636Z,28.53
2019-01-06T17:46:53.911Z,25.53
2019-01-06T17:49:40.900Z,26.53
2019-01-06T17:52:29.220Z,23.67
2019-01-06T17:55:11.750Z,25.60
2019-01-06T17:57:58.864Z,25.30
2019-01-06T18:00:47.159Z,25.17
2019-01-06T18:03:33.935Z,28.53
2019-01-06T18:06:20.676Z,23.30
2019-01-06T18:09:21.328Z,31.37
2019-01-06T18:12:06.403Z,27.77
2019-01-06T18:15:01.558Z,31.80
2019-01-06T18:18:01.655Z,29.63
2019-01-06T18:20:56.034Z,39.50
2019-01-06T18:23:40.320Z,46.53
2019-01-06T18:26:43.886Z,44.27
2019-01-06T18:29:30.744Z,43.83
2019-01-06T18:32:17.403Z,41.23
2019-01-06T18:35:13.325Z,49.93
2019-01-06T18:38:04.423Z,49.50
2019-01-06T18:40:43.453Z,58.43
2019-01-06T18:43:34.148Z,50.90
2019-01-06T18:46:20.856Z,55.37
2019-01-06T18:49:10.041Z,57.13
2019-01-06T18:51:57.111Z,54.03
2019-01-06T18:54:45.423Z,59.63
2019-01-06T18:57:36.557Z,63.47
2019-01-06T19:00:27.964Z,61.53
2019-01-06T19:03:28.443Z,65.87
2019-01-06T19:06:15.366Z,68.00
2019-01-06T19:09:14.227Z,52.23
2019-01-06T19:12:00.986Z,56.77
2019-01-06T19:15:01.230Z,45.53
2019-01-06T19:17:58.690Z,42.53
2019-01-06T19:20:56.201Z,41.33
2019-01-06T19:23:43.220Z,37.33
2019-01-06T19:26:49.530Z,36.37
2019-01-06T19:29:43.748Z,37.97
2019-01-06T19:32:41.650Z,32.67
2019-01-06T19:35:36.455Z,33.60
2019-01-06T19:38:35.217Z,34.87
2019-01-06T19:41:22.166Z,36.00
2019-01-06T19:44:10.163Z,31.83
2019-01-06T19:46:59.809Z,35.07
2019-01-06T19:49:46.575Z,34.93
2019-01-06T19:52:33.733Z,35.77
2019-01-06T19:55:18.129Z,38.80
2019-01-06T19:58:04.860Z,33.07
2019-01-06T20:00:51.924Z,33.23
2019-01-06T20:03:35.044Z,42.77
2019-01-06T20:06:22.060Z,36.43
2019-01-06T20:09:19.754Z,32.23
2019-01-06T20:12:22.913Z,35.57
2019-01-06T20:15:15.242Z,34.33
2019-01-06T20:18:01.940Z,34.33
2019-01-06T20:21:04.856Z,34.73
2019-01-06T20:23:55.960Z,37.20
2019-01-06T20:26:42.771Z,36.17
2019-01-06T20:29:29.484Z,38.53
2019-01-06T20:32:20.879Z,33.50
2019-01-06T20:35:27.079Z,30.83
2019-01-06T20:38:13.769Z,29.57
2019-01-06T20:41:00.685Z,31.70
2019-01-06T20:44:04.989Z,32.47
2019-01-06T20:46:53.410Z,34.07
2019-01-06T20:49:40.213Z,31.73
2019-01-06T20:52:28.580Z,36.27
2019-01-06T20:55:23.027Z,36.43
2019-01-06T20:58:09.941Z,35.83
2019-01-06T21:00:56.664Z,30.13
2019-01-06T21:03:47.940Z,31.87
2019-01-06T21:06:34.750Z,33.80
2019-01-06T21:09:27.931Z,40.47
2019-01-06T21:12:19.508Z,37.73
2019-01-06T21:15:06.775Z,38.10
2019-01-06T21:17:57.992Z,38.40
2019-01-06T21:20:46.276Z,32.60
2019-01-06T21:23:39.311Z,31.83
2019-01-06T21:26:26.014Z,30.77
2019-01-06T21:29:05.906Z,35.93
2019-01-06T21:31:54.172Z,37.20
2019-01-06T21:34:41.112Z,37.53
2019-01-06T21:37:29.444Z,34.17
2019-01-06T21:40:16.263Z,37.43
2019-01-06T21:43:13.324Z,37.20
2019-01-06T21:46:00.004Z,38.27
2019-01-06T21:48:43.836Z,36.50
2019-01-06T21:51:38.212Z,34.20
2019-01-06T21:54:25.024Z,38.27
2019-01-06T21:57:11.659Z,35.93
2019-01-06T21:59:59.985Z,41.47
2019-01-06T22:02:46.906Z,33.77
2019-01-06T22:05:32.728Z,33.70
2019-01-06T22:08:19.383Z,37.17
2019-01-06T22:11:20.066Z,33.03
2019-01-06T22:14:07.033Z,32.50
2019-01-06T22:16:53.714Z,33.67
2019-01-06T22:19:57.230Z,38.73
2019-01-06T22:22:52.491Z,38.23
2019-01-06T22:25:44.002Z,41.07
2019-01-06T22:28:32.277Z,37.67
2019-01-06T22:31:32.709Z,36.17
2019-01-06T22:34:19.481Z,39.30
2019-01-06T22:37:17.011Z,37.43
2019-01-06T22:40:03.804Z,37.27
2019-01-06T22:43:04.604Z,39.17
2019-01-06T22:45:51.260Z,41.70
2019-01-06T22:48:35.824Z,39.50
2019-01-06T22:51:22.708Z,43.10
2019-01-06T22:54:09.364Z,39.80
2019-01-06T22:57:06.578Z,44.57
2019-01-06T22:59:53.265Z,42.27
2019-01-06T23:02:53.779Z,50.27
2019-01-06T23:05:40.406Z,43.10
2019-01-06T23:08:28.717Z,42.47
2019-01-06T23:11:11.059Z,52.13
2019-01-06T23:13:58.433Z,47.80
2019-01-06T23:16:45.892Z,50.27
2019-01-06T23:19:49.337Z,55.07
2019-01-06T23:22:36.098Z,54.40
2019-01-06T23:25:26.660Z,52.67
2019-01-06T23:28:26.779Z,53.83
2019-01-06T23:31:13.480Z,53.10
2019-01-06T23:34:02.826Z,48.97
2019-01-06T23:36:49.527Z,54.97
2019-01-06T23:39:37.845Z,50.17
2019-01-06T23:42:21.644Z,49.63
2019-01-06T23:45:15.796Z,52.07
2019-01-06T23:48:06.884Z,53.10
2019-01-06T23:50:55.219Z,50.87
2019-01-06T23:53:40.940Z,44.00
2019-01-06T23:56:27.642Z,54.83
2019-01-06T23:59:13.027Z,50.13
